createdAt,value
2022-08-28T00:02:16.955Z,17.00
2022-08-28T00:04:45.237Z,17.10
2022-08-28T00:07:13.335Z,17.10
2022-08-28T00:09:42.883Z,17.00
2022-08-28T00:12:12.534Z,17.10
2022-08-28T00:14:40.826Z,17.10
2022-08-28T00:17:09.020Z,17.10
2022-08-28T00:19:38.775Z,16.90
2022-08-28T00:22:07.524Z,17.00
2022-08-28T00:24:36.960Z,16.90
2022-08-28T00:27:20.560Z,16.90
2022-08-28T00:29:48.569Z,16.90
2022-08-28T00:32:16.656Z,16.80
2022-08-28T00:34:47.319Z,16.80
2022-08-28T00:37:15.293Z,16.90
2022-08-28T00:39:45.032Z,17.00
2022-08-28T00:42:14.839Z,17.00
2022-08-28T00:44:42.863Z,17.10
2022-08-28T00:47:11.330Z,17.00
2022-08-28T00:49:46.205Z,17.00
2022-08-28T00:52:15.449Z,16.90
2022-08-28T00:54:54.434Z,16.90
2022-08-28T00:57:30.668Z,16.70
2022-08-28T00:59:58.666Z,16.80
2022-08-28T01:02:27.605Z,16.70
2022-08-28T01:04:56.190Z,16.70
2022-08-28T01:07:24.335Z,16.70
2022-08-28T01:09:54.329Z,16.70
2022-08-28T01:12:23.626Z,16.80
2022-08-28T01:14:54.313Z,16.70
2022-08-28T01:17:24.450Z,16.70
2022-08-28T01:19:57.380Z,16.70
2022-08-28T01:22:38.230Z,16.60
2022-08-28T01:25:11.665Z,16.60
2022-08-28T01:27:42.068Z,16.60
2022-08-28T01:30:11.570Z,16.60
2022-08-28T01:32:41.065Z,16.60
2022-08-28T01:35:10.926Z,16.60
2022-08-28T01:37:39.538Z,16.60
2022-08-28T01:40:10.654Z,16.60
2022-08-28T01:42:39.422Z,16.60
2022-08-28T01:45:11.247Z,16.60
2022-08-28T01:47:39.275Z,16.60
2022-08-28T01:50:08.228Z,16.60
2022-08-28T01:52:39.290Z,16.60
2022-08-28T01:55:09.921Z,16.60
2022-08-28T01:57:43.287Z,16.50
2022-08-28T02:00:12.398Z,16.60
2022-08-28T02:02:40.796Z,16.60
2022-08-28T02:05:10.905Z,16.60
2022-08-28T02:07:39.259Z,16.60
2022-08-28T02:10:08.385Z,16.60
2022-08-28T02:12:37.899Z,16.60
2022-08-28T02:15:09.032Z,16.60
2022-08-28T02:17:37.049Z,16.60
2022-08-28T02:20:06.066Z,16.60
2022-08-28T02:22:34.069Z,16.60
2022-08-28T02:25:02.353Z,16.60
2022-08-28T02:27:33.325Z,16.60
2022-08-28T02:30:03.231Z,16.60
2022-08-28T02:32:31.355Z,16.70
2022-08-28T02:34:59.536Z,16.60
2022-08-28T02:37:27.499Z,16.60
2022-08-28T02:39:56.405Z,16.50
2022-08-28T02:42:25.019Z,16.60
2022-08-28T02:44:53.194Z,16.60
2022-08-28T02:47:22.842Z,16.60
2022-08-28T02:49:50.878Z,16.50
2022-08-28T02:52:19.744Z,16.50
2022-08-28T02:54:47.750Z,16.50
2022-08-28T02:57:16.235Z,16.50
2022-08-28T02:59:44.716Z,16.50
2022-08-28T03:02:12.991Z,16.50
2022-08-28T03:04:43.170Z,16.40
2022-08-28T03:07:13.926Z,16.40
2022-08-28T03:09:43.806Z,16.30
2022-08-28T03:12:13.333Z,16.40
2022-08-28T03:14:42.235Z,16.40
2022-08-28T03:17:10.289Z,16.40
2022-08-28T03:19:38.521Z,16.30
2022-08-28T03:22:07.902Z,16.30
2022-08-28T03:24:35.098Z,16.20
2022-08-28T03:27:03.347Z,16.20
2022-08-28T03:29:31.570Z,16.20
2022-08-28T03:32:00.442Z,16.10
2022-08-28T03:34:28.517Z,16.10
2022-08-28T03:36:56.486Z,16.10
2022-08-28T03:39:25.839Z,16.10
2022-08-28T03:41:53.994Z,16.10
2022-08-28T03:44:22.801Z,16.20
2022-08-28T03:46:51.155Z,16.20
2022-08-28T03:49:20.011Z,16.10
2022-08-28T03:51:51.559Z,16.20
2022-08-28T03:54:19.559Z,16.10
2022-08-28T03:56:49.094Z,16.10
2022-08-28T03:59:17.150Z,16.00
2022-08-28T04:01:45.430Z,16.10
2022-08-28T04:04:13.498Z,16.10
2022-08-28T04:06:41.963Z,16.10
2022-08-28T04:09:10.010Z,16.10
2022-08-28T04:11:38.475Z,16.10
2022-08-28T04:14:08.110Z,16.20
2022-08-28T04:16:36.852Z,16.20
2022-08-28T04:19:05.007Z,16.20
2022-08-28T04:21:33.080Z,16.10
2022-08-28T04:24:01.270Z,16.10
2022-08-28T04:26:30.238Z,16.10
2022-08-28T04:28:58.227Z,16.10
2022-08-28T04:31:31.841Z,16.20
2022-08-28T04:34:00.670Z,16.20
2022-08-28T04:36:28.930Z,16.10
2022-08-28T04:38:58.163Z,16.10
2022-08-28T04:41:26.429Z,16.10
2022-08-28T04:43:56.497Z,16.10
2022-08-28T04:46:25.012Z,16.00
2022-08-28T04:48:54.391Z,16.00
2022-08-28T04:51:25.125Z,16.00
2022-08-28T04:53:53.254Z,16.00
2022-08-28T04:56:22.498Z,16.00
2022-08-28T04:58:50.534Z,16.10
2022-08-28T05:01:22.166Z,16.00
2022-08-28T05:03:53.613Z,16.10
2022-08-28T05:06:23.138Z,16.00
2022-08-28T05:08:51.185Z,16.10
2022-08-28T05:11:33.724Z,16.10
2022-08-28T05:14:04.542Z,16.00
2022-08-28T05:16:33.087Z,16.00
2022-08-28T05:19:01.729Z,16.00
2022-08-28T05:21:31.292Z,16.10
2022-08-28T05:23:59.491Z,16.10
2022-08-28T05:26:29.682Z,16.10
2022-08-28T05:28:58.801Z,16.10
2022-08-28T05:31:27.911Z,16.10
2022-08-28T05:33:56.457Z,16.10
2022-08-28T05:36:25.851Z,16.00
2022-08-28T05:39:04.949Z,16.00
2022-08-28T05:41:33.418Z,16.00
2022-08-28T05:44:02.524Z,16.00
2022-08-28T05:46:30.521Z,16.00
2022-08-28T05:48:59.734Z,16.00
2022-08-28T05:51:28.277Z,15.90
2022-08-28T05:53:57.827Z,16.00
2022-08-28T05:56:30.019Z,15.90
2022-08-28T05:58:58.197Z,15.90
2022-08-28T06:01:28.734Z,15.80
2022-08-28T06:03:58.127Z,15.80
2022-08-28T06:06:26.929Z,15.70
2022-08-28T06:08:59.066Z,15.60
2022-08-28T06:11:31.140Z,15.70
2022-08-28T06:14:01.393Z,15.70
2022-08-28T06:16:29.939Z,15.80
2022-08-28T06:18:58.198Z,15.70
2022-08-28T06:21:26.814Z,15.70
2022-08-28T06:23:54.781Z,15.60
2022-08-28T06:26:24.658Z,15.60
2022-08-28T06:28:57.259Z,15.60
2022-08-28T06:31:28.749Z,15.70
2022-08-28T06:34:01.600Z,15.60
2022-08-28T06:36:31.005Z,15.70
2022-08-28T06:39:03.075Z,15.70
2022-08-28T06:41:33.880Z,15.70
2022-08-28T06:44:03.967Z,15.70
2022-08-28T06:46:33.357Z,15.70
2022-08-28T06:49:04.314Z,15.70
2022-08-28T06:51:32.475Z,15.70
2022-08-28T06:54:00.448Z,15.60
2022-08-28T06:56:28.553Z,15.70
2022-08-28T06:58:59.723Z,15.60
2022-08-28T07:01:30.642Z,15.70
2022-08-28T07:04:00.628Z,15.60
2022-08-28T07:06:30.220Z,15.60
2022-08-28T07:08:58.446Z,15.60
2022-08-28T07:11:28.911Z,15.60
2022-08-28T07:13:58.331Z,15.60
2022-08-28T07:16:27.946Z,15.60
2022-08-28T07:18:57.496Z,15.50
2022-08-28T07:21:29.245Z,15.60
2022-08-28T07:24:00.740Z,15.50
2022-08-28T07:26:29.071Z,15.40
2022-08-28T07:29:00.633Z,15.40
2022-08-28T07:31:39.642Z,15.40
2022-08-28T07:34:09.669Z,15.30
2022-08-28T07:36:37.745Z,15.40
2022-08-28T07:39:06.481Z,15.50
2022-08-28T07:41:37.676Z,15.50
2022-08-28T07:44:23.580Z,15.50
2022-08-28T07:46:54.490Z,15.40
2022-08-28T07:49:24.613Z,15.50
2022-08-28T07:51:53.951Z,15.50
2022-08-28T07:54:22.879Z,15.40
2022-08-28T07:56:51.547Z,15.40
2022-08-28T07:59:20.400Z,15.40
2022-08-28T08:01:50.852Z,15.40
2022-08-28T08:04:20.094Z,15.40
2022-08-28T08:06:58.067Z,15.40
2022-08-28T08:09:27.223Z,15.40
2022-08-28T08:11:57.622Z,15.40
2022-08-28T08:14:25.817Z,15.40
2022-08-28T08:16:54.244Z,15.50
2022-08-28T08:19:22.357Z,15.40
2022-08-28T08:21:55.317Z,15.30
2022-08-28T08:24:26.575Z,15.30
2022-08-28T08:27:00.635Z,15.30
2022-08-28T08:29:31.473Z,15.20
2022-08-28T08:32:05.892Z,15.30
2022-08-28T08:34:35.171Z,15.10
2022-08-28T08:37:07.822Z,14.90
2022-08-28T08:39:36.784Z,14.90
2022-08-28T08:42:06.529Z,14.90
2022-08-28T08:44:35.857Z,14.90
2022-08-28T08:47:14.628Z,14.80
2022-08-28T08:49:48.815Z,14.80
2022-08-28T08:52:40.610Z,14.80
2022-08-28T08:55:25.629Z,14.70
2022-08-28T08:57:57.177Z,14.70
2022-08-28T09:00:25.350Z,14.60
2022-08-28T09:02:59.770Z,14.60
2022-08-28T09:05:31.636Z,14.80
2022-08-28T09:08:02.948Z,14.80
2022-08-28T09:10:36.398Z,14.70
2022-08-28T09:13:07.574Z,14.70
2022-08-28T09:15:39.668Z,14.80
2022-08-28T09:18:12.630Z,14.80
2022-08-28T09:20:44.139Z,14.80
2022-08-28T09:23:12.591Z,14.80
2022-08-28T09:25:51.551Z,14.80
2022-08-28T09:28:21.622Z,14.90
2022-08-28T09:30:54.649Z,14.90
2022-08-28T09:33:28.731Z,15.00
2022-08-28T09:35:56.985Z,15.00
2022-08-28T09:38:27.806Z,15.10
2022-08-28T09:41:26.752Z,15.10
2022-08-28T09:43:54.828Z,15.20
2022-08-28T09:46:25.675Z,15.20
2022-08-28T09:48:53.784Z,15.30
2022-08-28T09:51:29.379Z,15.30
2022-08-28T09:54:00.583Z,15.30
2022-08-28T09:56:32.117Z,15.40
2022-08-28T09:59:01.813Z,15.30
2022-08-28T10:01:49.245Z,15.30
2022-08-28T10:04:29.872Z,15.30
2022-08-28T10:07:02.442Z,15.30
2022-08-28T10:09:36.854Z,15.30
2022-08-28T10:12:11.947Z,15.30
2022-08-28T10:14:45.828Z,15.40
2022-08-28T10:17:18.893Z,15.30
2022-08-28T10:19:54.908Z,15.30
2022-08-28T10:22:28.828Z,15.30
2022-08-28T10:25:04.019Z,15.30
2022-08-28T10:27:40.749Z,15.30
2022-08-28T10:30:13.381Z,15.30
2022-08-28T10:32:50.733Z,15.30
2022-08-28T10:35:21.955Z,15.20
2022-08-28T10:37:55.707Z,15.20
2022-08-28T10:40:25.815Z,15.20
2022-08-28T10:43:00.450Z,15.30
2022-08-28T10:45:34.323Z,15.30
2022-08-28T10:48:06.608Z,15.20
2022-08-28T10:50:41.670Z,15.20
2022-08-28T10:53:11.582Z,15.20
2022-08-28T10:55:45.129Z,15.10
2022-08-28T10:58:24.070Z,15.10
2022-08-28T11:00:53.489Z,15.10
2022-08-28T11:03:34.445Z,15.20
2022-08-28T11:06:05.970Z,15.20
2022-08-28T11:08:35.526Z,15.20
2022-08-28T11:11:04.361Z,15.20
2022-08-28T11:13:46.042Z,15.10
2022-08-28T11:16:19.600Z,15.10
2022-08-28T11:19:00.546Z,15.10
2022-08-28T11:21:30.235Z,15.20
2022-08-28T11:24:02.269Z,15.20
2022-08-28T11:26:35.102Z,15.30
2022-08-28T11:29:04.872Z,15.30
2022-08-28T11:31:34.981Z,15.30
2022-08-28T11:34:03.178Z,15.30
2022-08-28T11:36:50.094Z,15.30
2022-08-28T11:39:21.977Z,15.30
2022-08-28T11:42:04.960Z,15.30
2022-08-28T11:44:44.934Z,15.40
2022-08-28T11:47:31.602Z,15.40
2022-08-28T11:50:04.489Z,15.40
2022-08-28T11:52:41.262Z,15.40
2022-08-28T11:55:15.051Z,15.40
2022-08-28T11:57:53.304Z,15.30
2022-08-28T12:00:26.665Z,15.30
2022-08-28T12:02:59.611Z,15.30
2022-08-28T12:05:39.260Z,15.30
2022-08-28T12:08:08.314Z,15.30
2022-08-28T12:10:56.358Z,15.30
2022-08-28T12:13:45.642Z,15.20
2022-08-28T12:16:15.892Z,15.10
2022-08-28T12:19:01.356Z,15.20
2022-08-28T12:21:32.131Z,15.20
2022-08-28T12:24:09.110Z,15.20
2022-08-28T12:26:39.996Z,15.20
2022-08-28T12:29:17.452Z,15.20
2022-08-28T12:32:16.253Z,15.10
2022-08-28T12:34:46.385Z,15.20
2022-08-28T12:37:35.764Z,15.10
2022-08-28T12:40:20.964Z,15.00
2022-08-28T12:42:54.902Z,15.00
2022-08-28T12:45:28.653Z,15.10
2022-08-28T12:48:00.194Z,15.10
2022-08-28T12:50:30.822Z,15.20
2022-08-28T12:53:00.610Z,15.00
2022-08-28T12:55:31.258Z,14.90
2022-08-28T12:57:59.909Z,14.80
2022-08-28T13:00:32.977Z,14.80
2022-08-28T13:03:03.186Z,14.80
2022-08-28T13:05:33.279Z,14.80
2022-08-28T13:08:02.584Z,14.70
2022-08-28T13:10:31.785Z,14.80
2022-08-28T13:13:05.661Z,14.70
2022-08-28T13:15:51.810Z,14.70
2022-08-28T13:18:42.256Z,14.70
2022-08-28T13:21:34.334Z,14.70
2022-08-28T13:24:17.827Z,14.70
2022-08-28T13:26:45.790Z,14.70
2022-08-28T13:29:18.791Z,14.70
2022-08-28T13:31:56.074Z,14.80
2022-08-28T13:34:26.474Z,14.70
2022-08-28T13:36:55.784Z,14.60
2022-08-28T13:39:23.881Z,14.50
2022-08-28T13:41:53.270Z,14.40
2022-08-28T13:44:25.949Z,14.30
2022-08-28T13:46:54.194Z,14.20
2022-08-28T13:49:22.805Z,14.10
2022-08-28T13:51:52.382Z,14.10
2022-08-28T13:54:22.378Z,14.10
2022-08-28T13:56:50.677Z,13.80
2022-08-28T13:59:19.075Z,13.60
2022-08-28T14:02:05.473Z,13.50
2022-08-28T14:04:33.914Z,13.40
2022-08-28T14:07:07.420Z,13.50
2022-08-28T14:09:35.815Z,13.40
2022-08-28T14:12:05.372Z,13.30
2022-08-28T14:14:33.858Z,13.20
2022-08-28T14:17:02.249Z,13.20
2022-08-28T14:19:31.012Z,13.00
2022-08-28T14:22:00.134Z,12.90
2022-08-28T14:24:30.001Z,12.80
2022-08-28T14:26:58.323Z,12.70
2022-08-28T14:29:26.589Z,12.60
2022-08-28T14:31:54.761Z,12.60
2022-08-28T14:34:25.112Z,12.40
2022-08-28T14:36:55.833Z,12.40
2022-08-28T14:39:25.161Z,12.40
2022-08-28T14:41:55.099Z,12.30
2022-08-28T14:44:23.799Z,12.50
2022-08-28T14:46:56.103Z,12.60
2022-08-28T14:49:25.850Z,12.50
2022-08-28T14:51:55.089Z,12.50
2022-08-28T14:54:24.680Z,12.70
2022-08-28T14:56:54.712Z,12.40
2022-08-28T14:59:24.752Z,12.50
2022-08-28T15:01:53.397Z,12.50
2022-08-28T15:04:23.721Z,12.40
2022-08-28T15:06:53.232Z,12.40
2022-08-28T15:09:21.238Z,12.40
2022-08-28T15:11:49.312Z,12.50
2022-08-28T15:14:18.846Z,12.60
2022-08-28T15:16:47.928Z,12.60
2022-08-28T15:19:18.029Z,12.70
2022-08-28T15:21:48.350Z,12.50
2022-08-28T15:24:17.816Z,12.50
2022-08-28T15:26:46.975Z,12.40
2022-08-28T15:29:15.132Z,12.30
2022-08-28T15:31:46.457Z,12.40
2022-08-28T15:34:15.726Z,12.50
2022-08-28T15:36:44.595Z,12.50
2022-08-28T15:39:30.589Z,12.50
2022-08-28T15:41:58.637Z,12.60
2022-08-28T15:44:26.676Z,12.70
2022-08-28T15:46:57.566Z,12.70
2022-08-28T15:49:26.499Z,12.70
2022-08-28T15:51:54.810Z,12.80
2022-08-28T15:54:25.495Z,12.60
2022-08-28T15:56:54.039Z,12.60
2022-08-28T15:59:24.803Z,12.60
2022-08-28T16:02:14.570Z,12.60
2022-08-28T16:04:42.904Z,12.70
2022-08-28T16:07:11.220Z,12.70
2022-08-28T16:09:48.390Z,12.70
2022-08-28T16:12:18.712Z,12.80
2022-08-28T16:14:46.826Z,12.80
2022-08-28T16:17:16.856Z,12.70
2022-08-28T16:19:45.453Z,12.70
2022-08-28T16:22:16.006Z,12.80
2022-08-28T16:24:46.805Z,12.80
2022-08-28T16:27:15.839Z,12.80
2022-08-28T16:29:45.056Z,12.70
2022-08-28T16:32:13.810Z,12.70
2022-08-28T16:34:44.842Z,12.70
2022-08-28T16:37:19.577Z,12.70
2022-08-28T16:39:49.321Z,12.90
2022-08-28T16:42:17.512Z,13.00
2022-08-28T16:44:46.045Z,13.00
2022-08-28T16:47:14.428Z,13.10
2022-08-28T16:49:44.413Z,13.10
2022-08-28T16:52:18.833Z,13.10
2022-08-28T16:54:48.716Z,13.10
2022-08-28T16:57:17.713Z,13.10
2022-08-28T16:59:46.268Z,13.20
2022-08-28T17:02:14.865Z,13.20
2022-08-28T17:04:45.290Z,13.20
2022-08-28T17:07:13.539Z,13.20
2022-08-28T17:09:43.730Z,13.20
2022-08-28T17:12:11.884Z,13.20
2022-08-28T17:14:41.335Z,13.20
2022-08-28T17:17:10.120Z,13.20
2022-08-28T17:19:38.976Z,13.20
2022-08-28T17:22:27.491Z,13.20
2022-08-28T17:25:02.075Z,13.30
2022-08-28T17:27:32.998Z,13.30
2022-08-28T17:30:01.898Z,13.20
2022-08-28T17:32:37.180Z,13.20
2022-08-28T17:35:06.932Z,13.20
2022-08-28T17:37:37.721Z,13.20
2022-08-28T17:40:11.349Z,13.20
2022-08-28T17:42:39.742Z,13.30
2022-08-28T17:45:09.955Z,13.30
2022-08-28T17:47:39.461Z,13.20
2022-08-28T17:50:09.719Z,13.20
2022-08-28T17:52:41.862Z,13.20
2022-08-28T17:55:12.422Z,13.20
2022-08-28T17:57:44.983Z,13.20
2022-08-28T18:00:19.489Z,13.40
2022-08-28T18:02:55.659Z,13.50
2022-08-28T18:05:28.064Z,13.50
2022-08-28T18:08:04.210Z,13.50
2022-08-28T18:10:41.852Z,13.50
2022-08-28T18:13:13.444Z,13.50
2022-08-28T18:15:45.706Z,13.60
2022-08-28T18:18:36.342Z,13.60
2022-08-28T18:21:10.116Z,13.70
2022-08-28T18:23:46.041Z,13.80
2022-08-28T18:26:21.519Z,13.80
2022-08-28T18:28:57.159Z,14.00
2022-08-28T18:31:33.612Z,14.00
2022-08-28T18:34:07.012Z,14.10
2022-08-28T18:36:43.815Z,14.00
2022-08-28T18:39:22.646Z,14.10
2022-08-28T18:42:04.056Z,14.00
2022-08-28T18:44:41.055Z,14.00
2022-08-28T18:47:16.459Z,14.00
2022-08-28T18:49:50.656Z,14.00
2022-08-28T18:52:29.198Z,14.10
2022-08-28T18:55:08.644Z,14.20
2022-08-28T18:57:43.029Z,14.20
2022-08-28T19:00:17.921Z,14.20
2022-08-28T19:02:52.162Z,14.20
2022-08-28T19:05:26.197Z,14.10
2022-08-28T19:08:00.379Z,14.20
2022-08-28T19:10:36.885Z,14.30
2022-08-28T19:13:10.602Z,14.30
2022-08-28T19:15:44.043Z,14.30
2022-08-28T19:18:16.919Z,14.20
2022-08-28T19:20:50.974Z,14.30
2022-08-28T19:23:24.193Z,14.30
2022-08-28T19:25:59.060Z,14.40
2022-08-28T19:28:31.905Z,14.40
2022-08-28T19:31:04.967Z,14.40
2022-08-28T19:33:40.158Z,14.40
2022-08-28T19:36:13.310Z,14.40
2022-08-28T19:38:46.206Z,14.50
2022-08-28T19:41:22.144Z,14.50
2022-08-28T19:43:54.725Z,14.50
2022-08-28T19:46:26.777Z,14.50
2022-08-28T19:48:58.998Z,14.60
2022-08-28T19:51:30.858Z,14.50
2022-08-28T19:54:02.608Z,14.50
2022-08-28T19:56:36.875Z,14.60
2022-08-28T19:59:09.026Z,14.50
2022-08-28T20:01:40.200Z,14.50
2022-08-28T20:04:14.229Z,14.60
2022-08-28T20:06:43.661Z,14.70
2022-08-28T20:09:13.200Z,14.70
2022-08-28T20:11:47.446Z,14.60
2022-08-28T20:14:16.682Z,14.70
2022-08-28T20:16:48.533Z,14.70
2022-08-28T20:19:18.886Z,14.70
2022-08-28T20:21:49.178Z,14.70
2022-08-28T20:24:20.546Z,14.70
2022-08-28T20:26:51.981Z,14.80
2022-08-28T20:29:20.314Z,14.80
2022-08-28T20:31:49.066Z,14.80
2022-08-28T20:34:18.354Z,14.80
2022-08-28T20:36:46.762Z,14.70
2022-08-28T20:39:15.690Z,14.70
2022-08-28T20:41:44.985Z,14.70
2022-08-28T20:44:16.716Z,14.80
2022-08-28T20:46:51.533Z,14.90
2022-08-28T20:49:23.883Z,14.80
2022-08-28T20:51:56.836Z,14.70
2022-08-28T20:54:26.771Z,14.80
2022-08-28T20:56:55.319Z,14.90
2022-08-28T20:59:28.845Z,14.70
2022-08-28T21:02:08.763Z,14.80
2022-08-28T21:04:40.226Z,14.80
2022-08-28T21:07:08.915Z,15.00
2022-08-28T21:10:03.979Z,14.90
2022-08-28T21:12:25.011Z,14.80
2022-08-28T21:14:54.451Z,14.80
2022-08-28T21:17:29.587Z,14.90
2022-08-28T21:19:58.358Z,14.90
2022-08-28T21:22:26.437Z,14.80
2022-08-28T21:24:54.640Z,14.90
2022-08-28T21:27:22.608Z,14.80
2022-08-28T21:29:50.706Z,14.90
2022-08-28T21:32:20.218Z,14.90
2022-08-28T21:34:48.230Z,14.90
2022-08-28T21:37:16.433Z,14.80
2022-08-28T21:39:44.397Z,14.80
2022-08-28T21:42:12.598Z,14.80
2022-08-28T21:44:40.997Z,14.90
2022-08-28T21:47:16.674Z,14.90
2022-08-28T21:49:48.544Z,14.90
2022-08-28T21:52:16.563Z,14.90
2022-08-28T21:54:44.746Z,15.00
2022-08-28T21:57:15.609Z,15.00
2022-08-28T21:59:44.029Z,15.00
2022-08-28T22:02:12.252Z,15.00
2022-08-28T22:04:40.584Z,14.90
2022-08-28T22:07:12.128Z,14.90
2022-08-28T22:09:40.136Z,14.90
2022-08-28T22:12:09.306Z,15.00
2022-08-28T22:14:37.543Z,15.10
2022-08-28T22:17:10.653Z,15.00
2022-08-28T22:19:39.649Z,15.00
2022-08-28T22:22:25.301Z,15.00
2022-08-28T22:24:54.996Z,15.10
2022-08-28T22:27:22.961Z,15.20
2022-08-28T22:29:51.165Z,15.20
2022-08-28T22:32:20.079Z,15.00
2022-08-28T22:34:51.166Z,15.10
2022-08-28T22:37:19.380Z,15.20
2022-08-28T22:39:47.443Z,15.30
2022-08-28T22:42:16.822Z,15.10
2022-08-28T22:44:44.791Z,15.10
2022-08-28T22:47:12.800Z,15.20
2022-08-28T22:49:40.846Z,15.10
2022-08-28T22:52:10.411Z,15.20
2022-08-28T22:54:38.690Z,15.20
2022-08-28T22:57:07.257Z,15.20
2022-08-28T22:59:36.686Z,15.20
2022-08-28T23:02:07.531Z,15.20
2022-08-28T23:04:35.746Z,15.20
2022-08-28T23:07:03.723Z,15.20
2022-08-28T23:09:31.921Z,15.20
2022-08-28T23:12:04.332Z,15.20
2022-08-28T23:14:32.894Z,15.20
2022-08-28T23:17:02.404Z,15.10
2022-08-28T23:19:30.598Z,15.10
2022-08-28T23:22:01.041Z,15.20
2022-08-28T23:24:29.150Z,15.20
2022-08-28T23:27:09.343Z,15.30
2022-08-28T23:29:45.496Z,15.20
2022-08-28T23:32:14.913Z,15.20
2022-08-28T23:34:42.994Z,15.20
2022-08-28T23:37:10.989Z,15.10
2022-08-28T23:39:39.003Z,15.20
2022-08-28T23:42:06.969Z,15.20
2022-08-28T23:44:35.982Z,15.10
2022-08-28T23:47:03.998Z,15.10
2022-08-28T23:49:34.850Z,15.10
2022-08-28T23:52:13.564Z,15.00
2022-08-28T23:54:41.670Z,15.10
2022-08-28T23:57:10.982Z,15.20
2022-08-28T23:59:39.159Z,15.20
